createdAt,value
2024-02-19T00:02:13.330Z,14.63
2024-02-19T00:04:40.175Z,15.00
2024-02-19T00:07:10.003Z,15.33
2024-02-19T00:09:39.079Z,15.07
2024-02-19T00:12:06.070Z,16.80
2024-02-19T00:14:32.829Z,15.03
2024-02-19T00:17:01.089Z,14.13
2024-02-19T00:19:27.947Z,14.77
2024-02-19T00:21:54.802Z,13.70
2024-02-19T00:24:23.754Z,14.43
2024-02-19T00:26:56.263Z,14.20
2024-02-19T00:29:23.230Z,14.67
2024-02-19T00:31:50.961Z,15.60
2024-02-19T00:34:25.034Z,15.37
2024-02-19T00:36:51.956Z,13.97
2024-02-19T00:39:18.635Z,17.13
2024-02-19T00:41:45.305Z,13.90
2024-02-19T00:44:12.178Z,14.50
2024-02-19T00:46:38.851Z,13.90
2024-02-19T00:49:05.970Z,14.30
2024-02-19T00:51:35.331Z,13.67
2024-02-19T00:54:04.573Z,14.73
2024-02-19T00:56:32.505Z,14.33
2024-02-19T00:59:02.112Z,14.20
2024-02-19T01:01:30.375Z,15.10
2024-02-19T01:03:59.638Z,15.73
2024-02-19T01:06:30.690Z,14.67
2024-02-19T01:09:00.366Z,15.13
2024-02-19T01:11:30.257Z,17.63
2024-02-19T01:14:00.135Z,15.53
2024-02-19T01:16:29.019Z,17.73
2024-02-19T01:18:56.086Z,16.80
2024-02-19T01:21:32.874Z,16.67
2024-02-19T01:24:01.709Z,16.93
2024-02-19T01:26:28.474Z,18.13
2024-02-19T01:28:55.132Z,19.37
2024-02-19T01:31:22.413Z,19.33
2024-02-19T01:33:50.632Z,16.23
2024-02-19T01:36:18.276Z,17.17
2024-02-19T01:38:49.352Z,16.47
2024-02-19T01:41:19.516Z,15.87
2024-02-19T01:43:46.143Z,14.67
2024-02-19T01:46:16.733Z,15.80
2024-02-19T01:48:43.600Z,16.13
2024-02-19T01:51:11.042Z,14.60
2024-02-19T01:53:40.097Z,15.17
2024-02-19T01:56:09.124Z,15.40
2024-02-19T01:58:39.645Z,14.77
2024-02-19T02:01:07.733Z,15.10
2024-02-19T02:03:41.299Z,15.67
2024-02-19T02:06:08.011Z,14.83
2024-02-19T02:08:41.739Z,15.90
2024-02-19T02:11:10.265Z,14.13
2024-02-19T02:13:40.037Z,12.93
2024-02-19T02:16:10.424Z,13.37
2024-02-19T02:18:37.317Z,13.63
2024-02-19T02:21:05.120Z,13.87
2024-02-19T02:23:32.244Z,13.33
2024-02-19T02:25:58.955Z,13.20
2024-02-19T02:28:34.783Z,13.33
2024-02-19T02:31:01.860Z,14.57
2024-02-19T02:33:31.034Z,13.03
2024-02-19T02:35:58.814Z,12.37
2024-02-19T02:38:25.772Z,12.43
2024-02-19T02:40:56.254Z,13.50
2024-02-19T02:43:23.062Z,11.97
2024-02-19T02:45:53.396Z,12.53
2024-02-19T02:48:20.422Z,12.77
2024-02-19T02:50:49.847Z,12.80
2024-02-19T02:53:21.759Z,12.60
2024-02-19T02:55:52.206Z,11.87
2024-02-19T02:58:19.091Z,11.70
2024-02-19T03:00:46.216Z,13.23
2024-02-19T03:03:13.089Z,12.63
2024-02-19T03:05:40.183Z,12.47
2024-02-19T03:08:08.140Z,12.93
2024-02-19T03:10:37.900Z,12.43
2024-02-19T03:13:04.858Z,12.40
2024-02-19T03:15:36.039Z,12.97
2024-02-19T03:18:03.073Z,11.80
2024-02-19T03:20:35.913Z,12.40
2024-02-19T03:23:05.516Z,12.50
2024-02-19T03:25:32.236Z,12.43
2024-02-19T03:28:02.169Z,13.87
2024-02-19T03:30:33.385Z,13.33
2024-02-19T03:33:02.458Z,12.57
2024-02-19T03:35:31.348Z,13.90
2024-02-19T03:37:58.064Z,13.90
2024-02-19T03:40:30.080Z,13.57
2024-02-19T03:42:59.914Z,13.00
2024-02-19T03:45:26.556Z,13.87
2024-02-19T03:47:57.626Z,13.17
2024-02-19T03:50:25.981Z,13.23
2024-02-19T03:52:59.192Z,12.93
2024-02-19T03:55:28.703Z,13.47
2024-02-19T03:57:58.601Z,13.20
2024-02-19T04:00:25.649Z,12.87
2024-02-19T04:02:54.350Z,13.50
2024-02-19T04:05:21.061Z,13.37
2024-02-19T04:07:49.929Z,12.93
2024-02-19T04:10:21.191Z,13.10
2024-02-19T04:12:51.039Z,12.90
2024-02-19T04:15:17.777Z,12.93
2024-02-19T04:17:46.713Z,13.33
2024-02-19T04:20:16.616Z,12.90
2024-02-19T04:22:46.097Z,12.87
2024-02-19T04:25:17.215Z,13.23
2024-02-19T04:27:44.157Z,13.33
2024-02-19T04:30:11.592Z,12.43
2024-02-19T04:32:38.874Z,13.37
2024-02-19T04:35:05.944Z,12.03
2024-02-19T04:37:32.854Z,11.37
2024-02-19T04:40:04.133Z,13.67
2024-02-19T04:42:30.934Z,11.47
2024-02-19T04:44:57.585Z,12.40
2024-02-19T04:47:24.318Z,11.87
2024-02-19T04:49:51.050Z,12.03
2024-02-19T04:52:22.727Z,12.27
2024-02-19T04:54:51.012Z,12.17
2024-02-19T04:57:17.629Z,11.90
2024-02-19T04:59:44.989Z,11.90
2024-02-19T05:02:12.016Z,10.90
2024-02-19T05:04:38.704Z,11.70
2024-02-19T05:07:08.493Z,11.37
2024-02-19T05:09:39.091Z,10.80
2024-02-19T05:12:05.868Z,10.83
2024-02-19T05:14:35.904Z,12.10
2024-02-19T05:17:02.873Z,12.27
2024-02-19T05:19:32.440Z,11.57
2024-02-19T05:22:03.442Z,11.67
2024-02-19T05:24:30.947Z,11.70
2024-02-19T05:26:57.585Z,13.00
2024-02-19T05:29:25.679Z,12.80
2024-02-19T05:31:52.926Z,11.53
2024-02-19T05:34:29.476Z,12.33
2024-02-19T05:36:56.219Z,12.87
2024-02-19T05:39:22.881Z,12.70
2024-02-19T05:41:49.424Z,13.70
2024-02-19T05:44:17.166Z,13.50
2024-02-19T05:46:44.562Z,14.37
2024-02-19T05:49:14.219Z,13.43
2024-02-19T05:51:45.495Z,13.53
2024-02-19T05:54:14.685Z,14.57
2024-02-19T05:56:42.652Z,13.60
2024-02-19T05:59:10.554Z,14.47
2024-02-19T06:01:37.318Z,15.07
2024-02-19T06:04:04.274Z,14.70
2024-02-19T06:06:32.358Z,14.60
2024-02-19T06:09:04.485Z,14.63
2024-02-19T06:11:33.159Z,15.40
2024-02-19T06:14:02.539Z,14.10
2024-02-19T06:16:35.001Z,15.50
2024-02-19T06:19:04.580Z,14.87
2024-02-19T06:21:31.443Z,13.77
2024-02-19T06:24:05.642Z,13.80
2024-02-19T06:26:35.947Z,15.07
2024-02-19T06:29:04.911Z,14.67
2024-02-19T06:31:37.460Z,14.90
2024-02-19T06:34:04.445Z,15.17
2024-02-19T06:36:31.145Z,13.27
2024-02-19T06:38:58.988Z,14.90
2024-02-19T06:41:25.634Z,14.57
2024-02-19T06:43:54.847Z,14.73
2024-02-19T06:46:27.742Z,14.73
2024-02-19T06:48:54.732Z,14.40
2024-02-19T06:51:21.411Z,15.07
2024-02-19T06:53:48.505Z,14.13
2024-02-19T06:56:20.100Z,13.77
2024-02-19T06:58:46.670Z,13.73
2024-02-19T07:01:16.483Z,14.73
2024-02-19T07:03:44.613Z,13.20
2024-02-19T07:06:11.415Z,12.70
2024-02-19T07:08:39.541Z,12.40
2024-02-19T07:11:06.137Z,12.60
2024-02-19T07:13:32.834Z,13.70
2024-02-19T07:16:02.015Z,13.60
2024-02-19T07:18:30.918Z,13.50
2024-02-19T07:21:02.947Z,11.57
2024-02-19T07:23:32.366Z,11.47
2024-02-19T07:26:09.634Z,11.73
2024-02-19T07:28:36.471Z,10.80
2024-02-19T07:31:05.308Z,12.07
2024-02-19T07:33:34.954Z,10.83
2024-02-19T07:36:06.112Z,10.97
2024-02-19T07:38:34.446Z,9.97
2024-02-19T07:41:01.037Z,10.27
2024-02-19T07:43:32.115Z,11.60
2024-02-19T07:46:02.207Z,9.90
2024-02-19T07:48:31.354Z,8.40
2024-02-19T07:50:58.335Z,8.70
2024-02-19T07:53:25.281Z,8.70
2024-02-19T07:56:06.078Z,8.23
2024-02-19T07:58:33.266Z,8.50
2024-02-19T08:01:04.145Z,8.47
2024-02-19T08:03:33.171Z,8.33
2024-02-19T08:06:00.129Z,9.07
2024-02-19T08:08:26.960Z,7.93
2024-02-19T08:11:00.803Z,8.63
2024-02-19T08:13:27.909Z,9.00
2024-02-19T08:15:56.844Z,9.40
2024-02-19T08:18:30.715Z,8.77
2024-02-19T08:20:57.883Z,8.90
2024-02-19T08:23:26.961Z,8.87
2024-02-19T08:25:53.625Z,8.87
2024-02-19T08:28:22.972Z,8.47
2024-02-19T08:30:49.699Z,8.87
2024-02-19T08:33:16.383Z,8.43
2024-02-19T08:35:43.075Z,8.40
2024-02-19T08:38:14.044Z,7.97
2024-02-19T08:40:40.960Z,8.20
2024-02-19T08:43:12.356Z,7.53
2024-02-19T08:45:39.788Z,7.20
2024-02-19T08:48:06.776Z,7.77
2024-02-19T08:50:36.204Z,7.93
2024-02-19T08:53:03.164Z,9.43
2024-02-19T08:55:33.053Z,8.03
2024-02-19T08:58:14.283Z,7.40
2024-02-19T09:00:48.334Z,10.50
2024-02-19T09:03:15.297Z,9.70
2024-02-19T09:05:45.342Z,6.87
2024-02-19T09:08:14.096Z,6.10
2024-02-19T09:10:42.186Z,33.30
2024-02-19T09:13:09.265Z,26.50
2024-02-19T09:15:35.933Z,29.90
2024-02-19T09:18:05.785Z,16.30
2024-02-19T09:20:35.889Z,17.00
2024-02-19T09:23:11.690Z,8.47
2024-02-19T09:25:42.339Z,11.80
2024-02-19T09:28:11.843Z,49.10
2024-02-19T09:30:38.594Z,9.53
2024-02-19T09:33:07.713Z,10.07
2024-02-19T09:35:38.177Z,7.40
2024-02-19T09:38:05.064Z,6.23
2024-02-19T09:40:37.208Z,5.23
2024-02-19T09:43:07.049Z,4.70
2024-02-19T09:45:40.890Z,3.40
2024-02-19T09:48:13.961Z,4.67
2024-02-19T09:50:45.195Z,2.40
2024-02-19T09:53:12.524Z,1.70
2024-02-19T09:55:39.890Z,1.67
2024-02-19T09:58:12.090Z,0.40
2024-02-19T10:00:41.000Z,0.20
2024-02-19T10:03:13.885Z,0.27
2024-02-19T10:05:42.736Z,0.20
2024-02-19T10:08:14.096Z,0.83
2024-02-19T10:10:46.233Z,0.20
2024-02-19T10:13:24.638Z,0.20
2024-02-19T10:15:52.022Z,0.10
2024-02-19T10:18:22.913Z,0.20
2024-02-19T10:20:54.339Z,0.67
2024-02-19T10:23:25.007Z,0.10
2024-02-19T10:25:55.424Z,0.00
2024-02-19T10:28:23.498Z,0.27
2024-02-19T10:30:54.113Z,0.17
2024-02-19T10:33:21.143Z,0.10
2024-02-19T10:35:51.589Z,0.30
2024-02-19T10:38:18.502Z,0.30
2024-02-19T10:40:48.439Z,0.27
2024-02-19T10:43:24.430Z,0.10
2024-02-19T10:45:53.956Z,0.10
2024-02-19T10:48:26.602Z,0.20
2024-02-19T10:51:03.859Z,0.43
2024-02-19T10:53:33.845Z,0.20
2024-02-19T10:56:40.124Z,0.27
2024-02-19T10:59:12.541Z,0.20
2024-02-19T11:01:45.574Z,0.10
2024-02-19T11:04:18.633Z,0.20
2024-02-19T11:06:49.578Z,0.20
2024-02-19T11:09:28.296Z,0.20
2024-02-19T11:11:59.562Z,0.20
2024-02-19T11:14:29.178Z,0.33
2024-02-19T11:16:58.187Z,0.97
2024-02-19T11:19:26.273Z,0.20
2024-02-19T11:22:04.538Z,0.20
2024-02-19T11:24:35.671Z,0.30
2024-02-19T11:27:06.331Z,0.30
2024-02-19T11:29:43.817Z,0.33
2024-02-19T11:32:22.551Z,0.20
2024-02-19T11:34:52.492Z,0.30
2024-02-19T11:37:25.673Z,0.40
2024-02-19T11:39:53.818Z,0.70
2024-02-19T11:42:21.101Z,0.40
2024-02-19T11:44:48.450Z,0.30
2024-02-19T11:47:15.928Z,0.40
2024-02-19T11:49:46.886Z,0.77
2024-02-19T11:52:20.496Z,0.50
2024-02-19T11:54:54.722Z,0.40
2024-02-19T11:57:27.717Z,1.03
2024-02-19T11:59:57.748Z,0.80
2024-02-19T12:02:31.735Z,1.03
2024-02-19T12:04:59.850Z,0.30
2024-02-19T12:07:26.633Z,0.30
2024-02-19T12:09:58.685Z,2.00
2024-02-19T12:12:34.462Z,0.60
2024-02-19T12:15:01.290Z,0.40
2024-02-19T12:17:33.862Z,0.20
2024-02-19T12:20:01.292Z,0.43
2024-02-19T12:22:31.742Z,0.97
2024-02-19T12:25:00.229Z,0.30
2024-02-19T12:27:30.529Z,0.30
2024-02-19T12:30:00.078Z,0.50
2024-02-19T12:32:37.041Z,0.43
2024-02-19T12:35:04.449Z,0.90
2024-02-19T12:37:31.972Z,0.90
2024-02-19T12:39:58.904Z,0.30
2024-02-19T12:42:26.278Z,0.80
2024-02-19T12:44:56.416Z,0.37
2024-02-19T12:47:25.088Z,0.73
2024-02-19T12:50:00.288Z,0.57
2024-02-19T12:52:28.783Z,1.27
2024-02-19T12:54:58.894Z,0.60
2024-02-19T12:57:26.881Z,1.13
2024-02-19T12:59:57.299Z,0.33
2024-02-19T13:02:24.186Z,0.97
2024-02-19T13:04:51.125Z,0.93
2024-02-19T13:07:18.145Z,0.40
2024-02-19T13:09:47.389Z,1.90
2024-02-19T13:12:16.148Z,0.93
2024-02-19T13:14:48.406Z,0.83
2024-02-19T13:17:23.137Z,0.40
2024-02-19T13:19:55.487Z,0.50
2024-02-19T13:22:28.771Z,0.67
2024-02-19T13:24:56.034Z,1.60
2024-02-19T13:27:25.158Z,0.30
2024-02-19T13:29:53.276Z,0.70
2024-02-19T13:32:22.047Z,0.73
2024-02-19T13:34:49.933Z,0.77
2024-02-19T13:37:19.436Z,0.57
2024-02-19T13:39:46.263Z,0.63
2024-02-19T13:42:16.016Z,0.50
2024-02-19T13:44:42.991Z,0.50
2024-02-19T13:47:11.848Z,0.50
2024-02-19T13:49:42.887Z,0.70
2024-02-19T13:52:15.396Z,0.50
2024-02-19T13:54:46.729Z,0.37
2024-02-19T13:57:14.757Z,1.33
2024-02-19T13:59:41.430Z,0.50
2024-02-19T14:02:08.159Z,0.40
2024-02-19T14:04:38.552Z,1.03
2024-02-19T14:07:08.613Z,0.63
2024-02-19T14:09:36.579Z,0.87
2024-02-19T14:12:03.381Z,0.77
2024-02-19T14:14:33.910Z,0.50
2024-02-19T14:17:03.979Z,0.60
2024-02-19T14:19:30.683Z,0.53
2024-02-19T14:21:57.706Z,0.80
2024-02-19T14:24:24.307Z,0.97
2024-02-19T14:26:53.722Z,0.53
2024-02-19T14:29:23.182Z,1.03
2024-02-19T14:31:54.009Z,1.67
2024-02-19T14:34:22.978Z,0.77
2024-02-19T14:36:53.579Z,1.10
2024-02-19T14:39:24.812Z,1.20
2024-02-19T14:41:53.527Z,1.33
2024-02-19T14:44:21.036Z,1.20
2024-02-19T14:46:54.531Z,1.33
2024-02-19T14:49:25.059Z,0.90
2024-02-19T14:51:56.523Z,0.93
2024-02-19T14:54:26.371Z,1.07
2024-02-19T14:56:54.907Z,0.97
2024-02-19T14:59:22.798Z,1.03
2024-02-19T15:01:49.588Z,0.67
2024-02-19T15:04:16.508Z,0.50
2024-02-19T15:06:43.243Z,4.20
2024-02-19T15:09:12.823Z,0.50
2024-02-19T15:11:41.914Z,0.67
2024-02-19T15:14:13.498Z,1.20
2024-02-19T15:16:43.951Z,1.20
2024-02-19T15:19:18.108Z,1.30
2024-02-19T15:21:47.447Z,0.80
2024-02-19T15:24:14.188Z,1.40
2024-02-19T15:26:49.350Z,0.60
2024-02-19T15:31:47.412Z,0.73
2024-02-19T15:34:23.159Z,0.80
2024-02-19T15:37:16.617Z,0.50
2024-02-19T15:39:43.448Z,0.87
2024-02-19T15:42:13.166Z,0.90
2024-02-19T15:44:39.906Z,0.50
2024-02-19T15:47:09.701Z,0.60
2024-02-19T15:49:36.505Z,1.03
2024-02-19T15:52:03.250Z,0.50
2024-02-19T15:54:32.371Z,0.57
2024-02-19T15:56:58.941Z,0.93
2024-02-19T15:59:26.813Z,0.70
2024-02-19T16:01:57.397Z,1.03
2024-02-19T16:04:27.744Z,1.43
2024-02-19T16:06:55.936Z,1.80
2024-02-19T16:09:22.625Z,1.60
2024-02-19T16:11:51.265Z,1.10
2024-02-19T16:14:21.130Z,1.10
2024-02-19T16:16:48.917Z,2.70
2024-02-19T16:19:25.058Z,1.87
2024-02-19T16:21:56.436Z,1.30
2024-02-19T16:24:23.100Z,1.77
2024-02-19T16:26:49.731Z,0.70
2024-02-19T16:29:16.376Z,0.90
2024-02-19T16:31:47.434Z,1.63
2024-02-19T16:34:14.631Z,1.63
2024-02-19T16:36:42.207Z,0.90
2024-02-19T16:39:09.381Z,0.77
2024-02-19T16:41:36.029Z,1.00
2024-02-19T16:44:02.634Z,0.73
2024-02-19T16:46:32.095Z,0.63
2024-02-19T16:48:58.970Z,0.70
2024-02-19T16:51:28.044Z,0.70
2024-02-19T16:53:58.152Z,0.50
2024-02-19T16:56:27.236Z,0.83
2024-02-19T16:58:57.916Z,0.70
2024-02-19T17:01:28.393Z,0.70
2024-02-19T17:03:55.866Z,1.30
2024-02-19T17:06:24.828Z,1.67
2024-02-19T17:08:52.764Z,0.70
2024-02-19T17:11:22.665Z,1.33
2024-02-19T17:13:49.326Z,0.60
2024-02-19T17:16:15.917Z,0.93
2024-02-19T17:18:42.714Z,1.87
2024-02-19T17:21:11.554Z,0.70
2024-02-19T17:23:39.375Z,0.50
2024-02-19T17:26:07.435Z,1.23
2024-02-19T17:28:34.187Z,1.07
2024-02-19T17:31:04.744Z,1.57
2024-02-19T17:33:32.227Z,0.60
2024-02-19T17:35:58.946Z,1.60
2024-02-19T17:38:26.052Z,0.60
2024-02-19T17:41:01.327Z,1.67
2024-02-19T17:43:28.221Z,1.17
2024-02-19T17:45:57.403Z,0.60
2024-02-19T17:48:28.241Z,1.10
2024-02-19T17:50:59.024Z,1.07
2024-02-19T17:53:28.404Z,0.63
2024-02-19T17:55:55.036Z,1.77
2024-02-19T17:58:22.488Z,0.70
2024-02-19T18:00:50.020Z,1.60
2024-02-19T18:03:18.801Z,1.20
2024-02-19T18:05:46.628Z,1.17
2024-02-19T18:08:15.807Z,1.43
2024-02-19T18:10:43.574Z,1.33
2024-02-19T18:13:10.551Z,1.60
2024-02-19T18:15:39.497Z,1.60
2024-02-19T18:18:11.102Z,1.73
2024-02-19T18:20:40.248Z,1.43
2024-02-19T18:23:10.481Z,1.50
2024-02-19T18:25:38.545Z,1.87
2024-02-19T18:28:08.368Z,1.50
2024-02-19T18:30:38.230Z,1.43
2024-02-19T18:33:08.730Z,2.30
2024-02-19T18:35:36.906Z,2.47
2024-02-19T18:38:08.613Z,1.50
2024-02-19T18:40:35.586Z,1.00
2024-02-19T18:43:02.445Z,1.60
2024-02-19T18:45:31.370Z,1.07
2024-02-19T18:48:10.582Z,1.10
2024-02-19T18:50:37.755Z,1.80
2024-02-19T18:53:10.006Z,1.33
2024-02-19T18:55:37.945Z,1.20
2024-02-19T18:58:04.947Z,1.00
2024-02-19T19:00:35.244Z,2.40
2024-02-19T19:03:02.466Z,1.80
2024-02-19T19:05:29.663Z,2.67
2024-02-19T19:07:56.830Z,2.13
2024-02-19T19:10:26.089Z,1.67
2024-02-19T19:12:52.721Z,1.87
2024-02-19T19:15:19.416Z,1.43
2024-02-19T19:17:46.826Z,1.47
2024-02-19T19:20:13.848Z,2.90
2024-02-19T19:22:40.823Z,1.63
2024-02-19T19:25:15.523Z,1.67
2024-02-19T19:27:42.165Z,1.33
2024-02-19T19:30:11.221Z,1.63
2024-02-19T19:32:38.366Z,1.87
2024-02-19T19:35:28.841Z,3.23
2024-02-19T19:37:58.373Z,1.43
2024-02-19T19:40:27.580Z,2.17
2024-02-19T19:42:57.485Z,2.03
2024-02-19T19:45:26.675Z,2.17
2024-02-19T19:47:56.305Z,1.37
2024-02-19T19:50:23.535Z,2.50
2024-02-19T19:52:51.201Z,0.90
2024-02-19T19:55:18.310Z,1.57
2024-02-19T19:57:51.970Z,1.43
2024-02-19T20:00:19.903Z,2.90
2024-02-19T20:02:46.691Z,1.73
2024-02-19T20:05:15.690Z,1.30
2024-02-19T20:07:44.209Z,2.30
2024-02-19T20:10:15.027Z,0.97
2024-02-19T20:12:44.710Z,1.20
2024-02-19T20:15:13.650Z,1.67
2024-02-19T20:17:40.369Z,1.33
2024-02-19T20:20:13.246Z,2.73
2024-02-19T20:22:41.392Z,1.50
2024-02-19T20:25:08.909Z,1.87
2024-02-19T20:27:36.989Z,2.10
2024-02-19T20:30:06.252Z,2.53
2024-02-19T20:32:32.952Z,1.53
2024-02-19T20:34:59.932Z,1.10
2024-02-19T20:37:26.608Z,2.17
2024-02-19T20:39:53.383Z,2.93
2024-02-19T20:42:20.783Z,1.53
2024-02-19T20:44:47.493Z,1.53
2024-02-19T20:47:19.787Z,1.80
2024-02-19T20:52:31.745Z,1.33
2024-02-19T20:55:00.706Z,1.53
2024-02-19T20:57:27.429Z,0.80
2024-02-19T20:59:57.312Z,1.10
2024-02-19T21:02:23.985Z,1.10
2024-02-19T21:04:53.473Z,1.77
2024-02-19T21:07:26.533Z,1.27
2024-02-19T21:10:02.006Z,1.87
2024-02-19T21:12:28.999Z,0.77
2024-02-19T21:14:57.598Z,0.80
2024-02-19T21:17:29.395Z,1.00
2024-02-19T21:20:00.123Z,0.87
2024-02-19T21:22:28.863Z,1.53
2024-02-19T21:25:00.887Z,2.17
2024-02-19T21:27:28.371Z,2.63
2024-02-19T21:29:57.308Z,0.90
2024-02-19T21:32:24.984Z,1.37
2024-02-19T21:34:52.267Z,1.33
2024-02-19T21:37:20.528Z,1.80
2024-02-19T21:39:47.170Z,1.47
2024-02-19T21:42:20.584Z,1.07
2024-02-19T21:44:50.554Z,1.03
2024-02-19T21:47:17.320Z,1.03
2024-02-19T21:49:48.173Z,2.67
2024-02-19T21:52:15.165Z,1.00
2024-02-19T21:54:41.815Z,0.97
2024-02-19T21:57:08.594Z,1.37
2024-02-19T21:59:35.175Z,1.27
2024-02-19T22:02:04.242Z,1.37
2024-02-19T22:04:31.050Z,1.70
2024-02-19T22:07:20.685Z,1.00
2024-02-19T22:09:49.670Z,2.30
2024-02-19T22:12:16.331Z,1.07
2024-02-19T22:14:43.011Z,0.80
2024-02-19T22:17:13.305Z,0.50
2024-02-19T22:19:42.886Z,1.37
2024-02-19T22:22:09.584Z,1.13
2024-02-19T22:24:40.068Z,1.57
2024-02-19T22:27:07.126Z,0.70
2024-02-19T22:29:33.788Z,1.20
2024-02-19T22:32:06.769Z,0.93
2024-02-19T22:34:36.954Z,1.00
2024-02-19T22:37:04.947Z,1.73
2024-02-19T22:39:34.881Z,1.37
2024-02-19T22:42:02.652Z,1.00
2024-02-19T22:44:29.251Z,1.43
2024-02-19T22:46:58.098Z,2.20
2024-02-19T22:49:25.963Z,1.03
2024-02-19T22:51:54.325Z,1.57
2024-02-19T22:54:20.912Z,2.00
2024-02-19T22:56:47.564Z,1.80
2024-02-19T22:59:21.063Z,1.50
2024-02-19T23:01:51.250Z,2.27
2024-02-19T23:04:18.080Z,1.90
2024-02-19T23:06:44.773Z,1.63
2024-02-19T23:09:13.828Z,3.50
2024-02-19T23:11:41.585Z,1.23
2024-02-19T23:14:08.459Z,1.70
2024-02-19T23:16:36.130Z,1.53
2024-02-19T23:19:02.955Z,3.23
2024-02-19T23:21:37.792Z,1.73
2024-02-19T23:24:04.746Z,2.90
2024-02-19T23:26:31.396Z,1.53
2024-02-19T23:28:58.080Z,2.10
2024-02-19T23:31:28.134Z,1.70
2024-02-19T23:33:55.146Z,3.27
2024-02-19T23:36:21.964Z,2.57
2024-02-19T23:38:48.743Z,2.37
2024-02-19T23:41:15.640Z,2.77
2024-02-19T23:43:48.506Z,1.63
2024-02-19T23:46:20.067Z,2.50
2024-02-19T23:48:46.763Z,2.40
2024-02-19T23:51:13.553Z,1.40
2024-02-19T23:53:40.201Z,1.90
2024-02-19T23:56:08.951Z,3.27
2024-02-19T23:58:35.654Z,1.80
